sensor_id;sensor_type;location;lat;lon;timestamp;P1;durP1;ratioP1;P2;durP2;ratioP2
3769;SDS011;1900;48.890;9.190;2024-01-07T00:01:12;21.10;;;12.93;;
3769;SDS011;1900;48.890;9.190;2024-01-07T00:03:40;20.37;;;13.60;;
3769;SDS011;1900;48.890;9.190;2024-01-07T00:06:07;22.00;;;11.73;;
3769;SDS011;1900;48.890;9.190;2024-01-07T00:08:35;18.17;;;12.50;;
3769;SDS011;1900;48.890;9.190;2024-01-07T00:11:01;19.50;;;11.90;;
3769;SDS011;1900;48.890;9.190;2024-01-07T00:13:26;16.03;;;10.33;;
3769;SDS011;1900;48.890;9.190;2024-01-07T00:15:52;15.23;;;10.57;;
3769;SDS011;1900;48.890;9.190;2024-01-07T00:18:19;18.93;;;12.70;;
3769;SDS011;1900;48.890;9.190;2024-01-07T00:20:45;17.53;;;10.70;;
3769;SDS011;1900;48.890;9.190;2024-01-07T00:23:11;15.97;;;10.80;;
3769;SDS011;1900;48.890;9.190;2024-01-07T00:25:36;20.57;;;11.87;;
3769;SDS011;1900;48.890;9.190;2024-01-07T00:28:02;18.80;;;11.43;;
3769;SDS011;1900;48.890;9.190;2024-01-07T00:30:28;23.27;;;13.47;;
3769;SDS011;1900;48.890;9.190;2024-01-07T00:32:54;20.13;;;12.00;;
3769;SDS011;1900;48.890;9.190;2024-01-07T00:35:20;15.30;;;10.70;;
3769;SDS011;1900;48.890;9.190;2024-01-07T00:37:46;20.63;;;11.07;;
3769;SDS011;1900;48.890;9.190;2024-01-07T00:40:11;16.70;;;10.97;;
3769;SDS011;1900;48.890;9.190;2024-01-07T00:42:37;18.63;;;11.40;;
3769;SDS011;1900;48.890;9.190;2024-01-07T00:45:03;18.63;;;11.67;;
3769;SDS011;1900;48.890;9.190;2024-01-07T00:47:29;18.60;;;11.53;;
3769;SDS011;1900;48.890;9.190;2024-01-07T00:49:55;17.57;;;10.83;;
3769;SDS011;1900;48.890;9.190;2024-01-07T00:52:21;18.40;;;11.70;;
3769;SDS011;1900;48.890;9.190;2024-01-07T00:54:48;16.73;;;10.87;;
3769;SDS011;1900;48.890;9.190;2024-01-07T00:57:14;22.53;;;12.33;;
3769;SDS011;1900;48.890;9.190;2024-01-07T00:59:40;19.80;;;11.70;;
3769;SDS011;1900;48.890;9.190;2024-01-07T01:02:06;18.03;;;12.40;;
3769;SDS011;1900;48.890;9.190;2024-01-07T01:04:32;25.10;;;13.97;;
3769;SDS011;1900;48.890;9.190;2024-01-07T01:06:58;21.57;;;12.23;;
3769;SDS011;1900;48.890;9.190;2024-01-07T01:09:23;18.87;;;12.00;;
3769;SDS011;1900;48.890;9.190;2024-01-07T01:11:50;18.97;;;12.77;;
3769;SDS011;1900;48.890;9.190;2024-01-07T01:14:15;22.27;;;13.17;;
3769;SDS011;1900;48.890;9.190;2024-01-07T01:16:41;19.10;;;12.07;;
3769;SDS011;1900;48.890;9.190;2024-01-07T01:19:07;20.13;;;12.20;;
3769;SDS011;1900;48.890;9.190;2024-01-07T01:21:34;18.87;;;11.50;;
3769;SDS011;1900;48.890;9.190;2024-01-07T01:24:00;22.20;;;13.13;;
3769;SDS011;1900;48.890;9.190;2024-01-07T01:26:26;18.17;;;12.03;;
3769;SDS011;1900;48.890;9.190;2024-01-07T01:28:52;19.13;;;11.73;;
3769;SDS011;1900;48.890;9.190;2024-01-07T01:31:18;22.60;;;12.50;;
3769;SDS011;1900;48.890;9.190;2024-01-07T01:33:43;22.83;;;13.43;;
3769;SDS011;1900;48.890;9.190;2024-01-07T01:36:09;19.60;;;12.97;;
3769;SDS011;1900;48.890;9.190;2024-01-07T01:38:35;22.90;;;14.23;;
3769;SDS011;1900;48.890;9.190;2024-01-07T01:41:00;22.70;;;12.60;;
3769;SDS011;1900;48.890;9.190;2024-01-07T01:43:27;18.87;;;12.00;;
3769;SDS011;1900;48.890;9.190;2024-01-07T01:45:54;23.17;;;13.80;;
3769;SDS011;1900;48.890;9.190;2024-01-07T01:48:21;23.90;;;13.80;;
3769;SDS011;1900;48.890;9.190;2024-01-07T01:50:47;18.97;;;11.57;;
3769;SDS011;1900;48.890;9.190;2024-01-07T01:53:14;22.53;;;13.20;;
3769;SDS011;1900;48.890;9.190;2024-01-07T01:55:41;19.50;;;13.63;;
3769;SDS011;1900;48.890;9.190;2024-01-07T01:58:11;19.63;;;13.23;;
3769;SDS011;1900;48.890;9.190;2024-01-07T02:00:40;21.87;;;14.20;;
3769;SDS011;1900;48.890;9.190;2024-01-07T02:03:05;22.47;;;13.70;;
3769;SDS011;1900;48.890;9.190;2024-01-07T02:05:31;24.50;;;12.93;;
3769;SDS011;1900;48.890;9.190;2024-01-07T02:07:57;21.73;;;14.00;;
3769;SDS011;1900;48.890;9.190;2024-01-07T02:10:24;24.10;;;14.37;;
3769;SDS011;1900;48.890;9.190;2024-01-07T02:12:50;22.93;;;14.47;;
3769;SDS011;1900;48.890;9.190;2024-01-07T02:15:15;22.00;;;13.53;;
3769;SDS011;1900;48.890;9.190;2024-01-07T02:17:41;28.73;;;14.67;;
3769;SDS011;1900;48.890;9.190;2024-01-07T02:20:07;23.53;;;14.47;;
3769;SDS011;1900;48.890;9.190;2024-01-07T02:22:33;23.00;;;14.00;;
3769;SDS011;1900;48.890;9.190;2024-01-07T02:24:59;21.50;;;13.17;;
3769;SDS011;1900;48.890;9.190;2024-01-07T02:27:25;25.30;;;14.57;;
3769;SDS011;1900;48.890;9.190;2024-01-07T02:29:51;20.77;;;13.00;;
3769;SDS011;1900;48.890;9.190;2024-01-07T02:32:17;23.10;;;13.67;;
3769;SDS011;1900;48.890;9.190;2024-01-07T02:34:43;21.43;;;13.17;;
3769;SDS011;1900;48.890;9.190;2024-01-07T02:37:09;21.40;;;15.03;;
3769;SDS011;1900;48.890;9.190;2024-01-07T02:39:35;24.03;;;13.40;;
3769;SDS011;1900;48.890;9.190;2024-01-07T02:42:01;18.93;;;12.70;;
3769;SDS011;1900;48.890;9.190;2024-01-07T02:44:27;24.30;;;13.27;;
3769;SDS011;1900;48.890;9.190;2024-01-07T02:46:53;19.27;;;12.13;;
3769;SDS011;1900;48.890;9.190;2024-01-07T02:49:19;19.60;;;12.53;;
3769;SDS011;1900;48.890;9.190;2024-01-07T02:51:44;19.23;;;12.30;;
3769;SDS011;1900;48.890;9.190;2024-01-07T02:54:15;17.37;;;12.37;;
3769;SDS011;1900;48.890;9.190;2024-01-07T02:56:41;21.53;;;11.37;;
3769;SDS011;1900;48.890;9.190;2024-01-07T02:59:07;20.20;;;12.43;;
3769;SDS011;1900;48.890;9.190;2024-01-07T03:01:32;19.67;;;11.67;;
3769;SDS011;1900;48.890;9.190;2024-01-07T03:04:05;21.77;;;13.43;;
3769;SDS011;1900;48.890;9.190;2024-01-07T03:06:31;17.17;;;11.27;;
3769;SDS011;1900;48.890;9.190;2024-01-07T03:08:57;19.27;;;12.40;;
3769;SDS011;1900;48.890;9.190;2024-01-07T03:11:23;21.43;;;11.73;;
3769;SDS011;1900;48.890;9.190;2024-01-07T03:13:49;19.03;;;12.40;;
3769;SDS011;1900;48.890;9.190;2024-01-07T03:16:21;21.37;;;12.00;;
3769;SDS011;1900;48.890;9.190;2024-01-07T03:18:48;25.00;;;12.70;;
3769;SDS011;1900;48.890;9.190;2024-01-07T03:21:18;18.70;;;11.70;;
3769;SDS011;1900;48.890;9.190;2024-01-07T03:23:45;20.20;;;12.90;;
3769;SDS011;1900;48.890;9.190;2024-01-07T03:26:11;22.90;;;11.87;;
3769;SDS011;1900;48.890;9.190;2024-01-07T03:28:37;21.10;;;13.10;;
3769;SDS011;1900;48.890;9.190;2024-01-07T03:31:05;20.50;;;12.50;;
3769;SDS011;1900;48.890;9.190;2024-01-07T03:33:33;23.20;;;12.60;;
3769;SDS011;1900;48.890;9.190;2024-01-07T03:35:59;21.70;;;13.80;;
3769;SDS011;1900;48.890;9.190;2024-01-07T03:38:26;20.40;;;12.73;;
3769;SDS011;1900;48.890;9.190;2024-01-07T03:40:52;19.13;;;13.10;;
3769;SDS011;1900;48.890;9.190;2024-01-07T03:43:17;20.47;;;11.93;;
3769;SDS011;1900;48.890;9.190;2024-01-07T03:45:43;18.77;;;13.17;;
3769;SDS011;1900;48.890;9.190;2024-01-07T03:48:09;19.57;;;12.93;;
3769;SDS011;1900;48.890;9.190;2024-01-07T03:50:34;22.20;;;12.70;;
3769;SDS011;1900;48.890;9.190;2024-01-07T03:53:01;20.50;;;11.97;;
3769;SDS011;1900;48.890;9.190;2024-01-07T03:55:27;22.47;;;12.77;;
3769;SDS011;1900;48.890;9.190;2024-01-07T03:57:52;17.83;;;12.20;;
3769;SDS011;1900;48.890;9.190;2024-01-07T04:00:19;21.73;;;12.57;;
3769;SDS011;1900;48.890;9.190;2024-01-07T04:02:45;24.83;;;13.33;;
3769;SDS011;1900;48.890;9.190;2024-01-07T04:05:14;21.67;;;12.33;;
3769;SDS011;1900;48.890;9.190;2024-01-07T04:07:40;21.80;;;13.23;;
3769;SDS011;1900;48.890;9.190;2024-01-07T04:10:06;20.10;;;12.33;;
3769;SDS011;1900;48.890;9.190;2024-01-07T04:12:31;19.93;;;11.90;;
3769;SDS011;1900;48.890;9.190;2024-01-07T04:14:57;18.73;;;11.73;;
3769;SDS011;1900;48.890;9.190;2024-01-07T04:17:23;21.37;;;12.80;;
3769;SDS011;1900;48.890;9.190;2024-01-07T04:19:49;21.73;;;12.27;;
3769;SDS011;1900;48.890;9.190;2024-01-07T04:22:15;25.27;;;12.00;;
3769;SDS011;1900;48.890;9.190;2024-01-07T04:24:41;19.73;;;11.70;;
3769;SDS011;1900;48.890;9.190;2024-01-07T04:27:07;18.17;;;11.57;;
3769;SDS011;1900;48.890;9.190;2024-01-07T04:29:32;20.37;;;11.73;;
3769;SDS011;1900;48.890;9.190;2024-01-07T04:31:58;22.20;;;12.70;;
3769;SDS011;1900;48.890;9.190;2024-01-07T04:34:24;19.80;;;11.17;;
3769;SDS011;1900;48.890;9.190;2024-01-07T04:36:50;18.60;;;10.27;;
3769;SDS011;1900;48.890;9.190;2024-01-07T04:39:16;16.70;;;10.57;;
3769;SDS011;1900;48.890;9.190;2024-01-07T04:41:41;18.03;;;10.20;;
3769;SDS011;1900;48.890;9.190;2024-01-07T04:44:07;19.50;;;11.70;;
3769;SDS011;1900;48.890;9.190;2024-01-07T04:46:33;16.73;;;10.57;;
3769;SDS011;1900;48.890;9.190;2024-01-07T04:49:00;16.07;;;10.47;;
3769;SDS011;1900;48.890;9.190;2024-01-07T04:51:26;17.07;;;10.23;;
3769;SDS011;1900;48.890;9.190;2024-01-07T04:53:52;17.70;;;10.40;;
3769;SDS011;1900;48.890;9.190;2024-01-07T04:56:18;15.97;;;9.50;;
3769;SDS011;1900;48.890;9.190;2024-01-07T04:58:43;21.30;;;10.10;;
3769;SDS011;1900;48.890;9.190;2024-01-07T05:01:09;15.90;;;9.50;;
3769;SDS011;1900;48.890;9.190;2024-01-07T05:03:35;19.70;;;9.73;;
3769;SDS011;1900;48.890;9.190;2024-01-07T05:06:03;19.37;;;10.77;;
3769;SDS011;1900;48.890;9.190;2024-01-07T05:08:29;17.70;;;9.90;;
3769;SDS011;1900;48.890;9.190;2024-01-07T05:10:55;17.17;;;9.57;;
3769;SDS011;1900;48.890;9.190;2024-01-07T05:13:21;15.33;;;9.60;;
3769;SDS011;1900;48.890;9.190;2024-01-07T05:15:47;14.47;;;9.73;;
3769;SDS011;1900;48.890;9.190;2024-01-07T05:18:27;15.97;;;9.50;;
3769;SDS011;1900;48.890;9.190;2024-01-07T05:20:53;14.83;;;8.70;;
3769;SDS011;1900;48.890;9.190;2024-01-07T05:23:19;16.40;;;10.40;;
3769;SDS011;1900;48.890;9.190;2024-01-07T05:25:45;15.90;;;9.90;;
3769;SDS011;1900;48.890;9.190;2024-01-07T05:28:11;16.57;;;9.70;;
3769;SDS011;1900;48.890;9.190;2024-01-07T05:30:41;15.60;;;9.63;;
3769;SDS011;1900;48.890;9.190;2024-01-07T05:33:09;16.03;;;9.13;;
3769;SDS011;1900;48.890;9.190;2024-01-07T05:35:35;13.67;;;9.00;;
3769;SDS011;1900;48.890;9.190;2024-01-07T05:38:00;16.03;;;9.57;;
3769;SDS011;1900;48.890;9.190;2024-01-07T05:40:26;19.97;;;10.10;;
3769;SDS011;1900;48.890;9.190;2024-01-07T05:42:52;15.23;;;8.73;;
3769;SDS011;1900;48.890;9.190;2024-01-07T05:45:18;15.10;;;9.37;;
3769;SDS011;1900;48.890;9.190;2024-01-07T05:47:43;11.30;;;7.83;;
3769;SDS011;1900;48.890;9.190;2024-01-07T05:50:09;15.30;;;9.80;;
3769;SDS011;1900;48.890;9.190;2024-01-07T05:52:35;15.80;;;9.20;;
3769;SDS011;1900;48.890;9.190;2024-01-07T05:55:01;17.23;;;9.10;;
3769;SDS011;1900;48.890;9.190;2024-01-07T05:57:28;16.97;;;9.43;;
3769;SDS011;1900;48.890;9.190;2024-01-07T05:59:54;19.80;;;9.47;;
3769;SDS011;1900;48.890;9.190;2024-01-07T06:02:20;15.33;;;9.93;;
3769;SDS011;1900;48.890;9.190;2024-01-07T06:04:48;17.73;;;9.00;;
3769;SDS011;1900;48.890;9.190;2024-01-07T06:07:13;14.10;;;8.70;;
3769;SDS011;1900;48.890;9.190;2024-01-07T06:09:39;13.17;;;8.60;;
3769;SDS011;1900;48.890;9.190;2024-01-07T06:12:05;14.70;;;8.57;;
3769;SDS011;1900;48.890;9.190;2024-01-07T06:14:30;14.23;;;8.80;;
3769;SDS011;1900;48.890;9.190;2024-01-07T06:16:56;13.43;;;7.90;;
3769;SDS011;1900;48.890;9.190;2024-01-07T06:19:22;13.37;;;8.53;;
3769;SDS011;1900;48.890;9.190;2024-01-07T06:21:48;12.03;;;8.43;;
3769;SDS011;1900;48.890;9.190;2024-01-07T06:24:14;12.30;;;8.33;;
3769;SDS011;1900;48.890;9.190;2024-01-07T06:26:40;13.23;;;7.93;;
3769;SDS011;1900;48.890;9.190;2024-01-07T06:29:06;18.33;;;10.07;;
3769;SDS011;1900;48.890;9.190;2024-01-07T06:31:34;12.43;;;8.13;;
3769;SDS011;1900;48.890;9.190;2024-01-07T06:34:00;14.37;;;9.27;;
3769;SDS011;1900;48.890;9.190;2024-01-07T06:36:26;13.83;;;8.37;;
3769;SDS011;1900;48.890;9.190;2024-01-07T06:38:51;13.67;;;8.30;;
3769;SDS011;1900;48.890;9.190;2024-01-07T06:41:18;11.80;;;7.83;;
3769;SDS011;1900;48.890;9.190;2024-01-07T06:43:43;12.70;;;8.97;;
3769;SDS011;1900;48.890;9.190;2024-01-07T06:46:09;13.00;;;8.30;;
3769;SDS011;1900;48.890;9.190;2024-01-07T06:48:35;10.93;;;8.00;;
3769;SDS011;1900;48.890;9.190;2024-01-07T06:51:01;13.47;;;9.00;;
3769;SDS011;1900;48.890;9.190;2024-01-07T06:53:27;16.67;;;8.23;;
3769;SDS011;1900;48.890;9.190;2024-01-07T06:55:52;11.60;;;7.97;;
3769;SDS011;1900;48.890;9.190;2024-01-07T06:58:18;16.00;;;8.30;;
3769;SDS011;1900;48.890;9.190;2024-01-07T07:00:44;13.77;;;8.07;;
3769;SDS011;1900;48.890;9.190;2024-01-07T07:03:09;11.93;;;7.97;;
3769;SDS011;1900;48.890;9.190;2024-01-07T07:05:36;10.03;;;6.57;;
3769;SDS011;1900;48.890;9.190;2024-01-07T07:08:02;9.20;;;6.70;;
3769;SDS011;1900;48.890;9.190;2024-01-07T07:10:28;10.70;;;7.10;;
3769;SDS011;1900;48.890;9.190;2024-01-07T07:12:53;10.10;;;7.17;;
3769;SDS011;1900;48.890;9.190;2024-01-07T07:15:19;8.73;;;6.00;;
3769;SDS011;1900;48.890;9.190;2024-01-07T07:17:45;11.40;;;7.53;;
3769;SDS011;1900;48.890;9.190;2024-01-07T07:20:11;11.83;;;6.93;;
3769;SDS011;1900;48.890;9.190;2024-01-07T07:22:36;9.47;;;6.57;;
3769;SDS011;1900;48.890;9.190;2024-01-07T07:25:02;11.03;;;7.03;;
3769;SDS011;1900;48.890;9.190;2024-01-07T07:27:28;15.83;;;6.43;;
3769;SDS011;1900;48.890;9.190;2024-01-07T07:29:54;10.03;;;6.60;;
3769;SDS011;1900;48.890;9.190;2024-01-07T07:32:19;10.40;;;6.53;;
3769;SDS011;1900;48.890;9.190;2024-01-07T07:34:45;10.60;;;6.77;;
3769;SDS011;1900;48.890;9.190;2024-01-07T07:37:12;7.10;;;5.27;;
3769;SDS011;1900;48.890;9.190;2024-01-07T07:39:38;7.10;;;5.83;;
3769;SDS011;1900;48.890;9.190;2024-01-07T07:42:04;8.30;;;6.17;;
3769;SDS011;1900;48.890;9.190;2024-01-07T07:44:31;10.40;;;6.93;;
3769;SDS011;1900;48.890;9.190;2024-01-07T07:46:57;11.60;;;6.30;;
3769;SDS011;1900;48.890;9.190;2024-01-07T07:49:23;8.43;;;5.40;;
3769;SDS011;1900;48.890;9.190;2024-01-07T07:51:48;11.33;;;6.53;;
3769;SDS011;1900;48.890;9.190;2024-01-07T07:54:14;10.60;;;6.20;;
3769;SDS011;1900;48.890;9.190;2024-01-07T07:56:40;7.80;;;5.97;;
3769;SDS011;1900;48.890;9.190;2024-01-07T07:59:05;9.17;;;6.27;;
3769;SDS011;1900;48.890;9.190;2024-01-07T08:01:32;6.87;;;5.63;;
3769;SDS011;1900;48.890;9.190;2024-01-07T08:03:58;8.40;;;6.67;;
3769;SDS011;1900;48.890;9.190;2024-01-07T08:06:24;10.30;;;6.40;;
3769;SDS011;1900;48.890;9.190;2024-01-07T08:08:49;9.43;;;5.73;;
3769;SDS011;1900;48.890;9.190;2024-01-07T08:11:15;9.00;;;5.60;;
3769;SDS011;1900;48.890;9.190;2024-01-07T08:13:41;9.00;;;5.87;;
3769;SDS011;1900;48.890;9.190;2024-01-07T08:16:07;10.93;;;6.03;;
3769;SDS011;1900;48.890;9.190;2024-01-07T08:18:33;9.47;;;6.53;;
3769;SDS011;1900;48.890;9.190;2024-01-07T08:20:59;9.33;;;6.37;;
3769;SDS011;1900;48.890;9.190;2024-01-07T08:23:25;7.67;;;5.53;;
3769;SDS011;1900;48.890;9.190;2024-01-07T08:25:52;10.17;;;6.37;;
3769;SDS011;1900;48.890;9.190;2024-01-07T08:28:18;8.77;;;5.40;;
3769;SDS011;1900;48.890;9.190;2024-01-07T08:30:45;9.40;;;5.70;;
3769;SDS011;1900;48.890;9.190;2024-01-07T08:33:12;9.70;;;5.90;;
3769;SDS011;1900;48.890;9.190;2024-01-07T08:35:38;10.30;;;5.77;;
3769;SDS011;1900;48.890;9.190;2024-01-07T08:38:06;7.97;;;4.60;;
3769;SDS011;1900;48.890;9.190;2024-01-07T08:40:32;7.30;;;4.63;;
3769;SDS011;1900;48.890;9.190;2024-01-07T08:42:57;6.03;;;4.73;;
3769;SDS011;1900;48.890;9.190;2024-01-07T08:45:24;5.87;;;5.30;;
3769;SDS011;1900;48.890;9.190;2024-01-07T08:47:50;6.40;;;4.67;;
3769;SDS011;1900;48.890;9.190;2024-01-07T08:50:16;5.60;;;4.27;;
3769;SDS011;1900;48.890;9.190;2024-01-07T08:52:41;6.00;;;4.00;;
3769;SDS011;1900;48.890;9.190;2024-01-07T08:55:07;6.10;;;4.77;;
3769;SDS011;1900;48.890;9.190;2024-01-07T08:57:35;6.00;;;4.57;;
3769;SDS011;1900;48.890;9.190;2024-01-07T09:00:02;5.73;;;4.57;;
3769;SDS011;1900;48.890;9.190;2024-01-07T09:02:27;9.13;;;5.87;;
3769;SDS011;1900;48.890;9.190;2024-01-07T09:04:53;9.30;;;6.50;;
3769;SDS011;1900;48.890;9.190;2024-01-07T09:07:19;8.43;;;5.83;;
3769;SDS011;1900;48.890;9.190;2024-01-07T09:09:45;7.27;;;5.40;;
3769;SDS011;1900;48.890;9.190;2024-01-07T09:12:10;8.77;;;6.00;;
3769;SDS011;1900;48.890;9.190;2024-01-07T09:14:39;8.63;;;5.60;;
3769;SDS011;1900;48.890;9.190;2024-01-07T09:17:06;8.17;;;5.37;;
3769;SDS011;1900;48.890;9.190;2024-01-07T09:19:32;8.63;;;5.10;;
3769;SDS011;1900;48.890;9.190;2024-01-07T09:21:58;9.93;;;5.60;;
3769;SDS011;1900;48.890;9.190;2024-01-07T09:24:24;7.13;;;5.03;;
3769;SDS011;1900;48.890;9.190;2024-01-07T09:26:49;9.40;;;5.50;;
3769;SDS011;1900;48.890;9.190;2024-01-07T09:29:16;9.23;;;5.30;;
3769;SDS011;1900;48.890;9.190;2024-01-07T09:31:42;10.03;;;6.03;;
3769;SDS011;1900;48.890;9.190;2024-01-07T09:34:08;7.80;;;5.33;;
3769;SDS011;1900;48.890;9.190;2024-01-07T09:36:33;8.93;;;6.07;;
3769;SDS011;1900;48.890;9.190;2024-01-07T09:39:01;9.37;;;6.13;;
3769;SDS011;1900;48.890;9.190;2024-01-07T09:41:31;7.30;;;5.60;;
3769;SDS011;1900;48.890;9.190;2024-01-07T09:43:58;8.80;;;5.23;;
3769;SDS011;1900;48.890;9.190;2024-01-07T09:46:24;16.10;;;7.20;;
3769;SDS011;1900;48.890;9.190;2024-01-07T09:48:53;10.30;;;5.80;;
3769;SDS011;1900;48.890;9.190;2024-01-07T09:51:21;9.90;;;7.67;;
3769;SDS011;1900;48.890;9.190;2024-01-07T09:53:48;11.37;;;6.43;;
3769;SDS011;1900;48.890;9.190;2024-01-07T09:56:19;9.40;;;6.67;;
3769;SDS011;1900;48.890;9.190;2024-01-07T09:58:49;10.97;;;5.97;;
3769;SDS011;1900;48.890;9.190;2024-01-07T10:01:17;7.90;;;5.73;;
3769;SDS011;1900;48.890;9.190;2024-01-07T10:03:43;6.67;;;5.07;;
3769;SDS011;1900;48.890;9.190;2024-01-07T10:06:10;7.90;;;5.40;;
3769;SDS011;1900;48.890;9.190;2024-01-07T10:08:37;6.20;;;4.70;;
3769;SDS011;1900;48.890;9.190;2024-01-07T10:11:03;8.40;;;5.33;;
3769;SDS011;1900;48.890;9.190;2024-01-07T10:13:30;7.70;;;4.80;;
3769;SDS011;1900;48.890;9.190;2024-01-07T10:15:56;7.63;;;5.10;;
3769;SDS011;1900;48.890;9.190;2024-01-07T10:18:22;7.10;;;4.90;;
3769;SDS011;1900;48.890;9.190;2024-01-07T10:20:48;8.00;;;4.80;;
3769;SDS011;1900;48.890;9.190;2024-01-07T10:23:20;5.87;;;4.90;;
3769;SDS011;1900;48.890;9.190;2024-01-07T10:25:46;7.70;;;4.70;;
3769;SDS011;1900;48.890;9.190;2024-01-07T10:28:12;6.33;;;4.40;;
3769;SDS011;1900;48.890;9.190;2024-01-07T10:30:47;4.80;;;4.30;;
3769;SDS011;1900;48.890;9.190;2024-01-07T10:33:14;8.70;;;5.67;;
3769;SDS011;1900;48.890;9.190;2024-01-07T10:35:43;6.73;;;4.83;;
3769;SDS011;1900;48.890;9.190;2024-01-07T10:38:19;6.20;;;4.67;;
3769;SDS011;1900;48.890;9.190;2024-01-07T10:40:46;7.13;;;5.43;;
3769;SDS011;1900;48.890;9.190;2024-01-07T10:43:15;8.13;;;5.00;;
3769;SDS011;1900;48.890;9.190;2024-01-07T10:45:42;8.10;;;5.10;;
3769;SDS011;1900;48.890;9.190;2024-01-07T10:48:13;6.53;;;4.70;;
3769;SDS011;1900;48.890;9.190;2024-01-07T10:50:44;6.30;;;4.50;;
3769;SDS011;1900;48.890;9.190;2024-01-07T10:53:13;5.47;;;4.40;;
3769;SDS011;1900;48.890;9.190;2024-01-07T10:55:48;10.07;;;5.23;;
3769;SDS011;1900;48.890;9.190;2024-01-07T10:58:30;5.90;;;4.87;;
3769;SDS011;1900;48.890;9.190;2024-01-07T11:00:59;5.70;;;4.97;;
3769;SDS011;1900;48.890;9.190;2024-01-07T11:03:33;6.80;;;4.90;;
3769;SDS011;1900;48.890;9.190;2024-01-07T11:11:27;8.07;;;5.60;;
3769;SDS011;1900;48.890;9.190;2024-01-07T11:14:01;7.80;;;5.63;;
3769;SDS011;1900;48.890;9.190;2024-01-07T11:19:14;7.53;;;5.30;;
3769;SDS011;1900;48.890;9.190;2024-01-07T11:21:40;5.20;;;4.37;;
3769;SDS011;1900;48.890;9.190;2024-01-07T11:24:05;8.03;;;5.70;;
3769;SDS011;1900;48.890;9.190;2024-01-07T11:26:31;6.10;;;4.30;;
3769;SDS011;1900;48.890;9.190;2024-01-07T11:28:57;6.57;;;4.80;;
3769;SDS011;1900;48.890;9.190;2024-01-07T11:34:04;7.60;;;4.93;;
3769;SDS011;1900;48.890;9.190;2024-01-07T11:36:31;5.70;;;4.50;;
3769;SDS011;1900;48.890;9.190;2024-01-07T11:38:59;6.80;;;5.37;;
3769;SDS011;1900;48.890;9.190;2024-01-07T11:41:27;6.67;;;5.23;;
3769;SDS011;1900;48.890;9.190;2024-01-07T11:43:57;6.13;;;4.60;;
3769;SDS011;1900;48.890;9.190;2024-01-07T11:46:24;6.53;;;5.00;;
3769;SDS011;1900;48.890;9.190;2024-01-07T11:48:55;7.30;;;5.20;;
3769;SDS011;1900;48.890;9.190;2024-01-07T11:51:26;7.33;;;5.70;;
3769;SDS011;1900;48.890;9.190;2024-01-07T11:53:56;7.30;;;5.70;;
3769;SDS011;1900;48.890;9.190;2024-01-07T11:56:24;6.53;;;5.10;;
3769;SDS011;1900;48.890;9.190;2024-01-07T11:58:51;8.27;;;6.13;;
3769;SDS011;1900;48.890;9.190;2024-01-07T12:01:17;9.93;;;6.27;;
3769;SDS011;1900;48.890;9.190;2024-01-07T12:03:44;10.40;;;6.77;;
3769;SDS011;1900;48.890;9.190;2024-01-07T12:06:10;11.30;;;6.37;;
3769;SDS011;1900;48.890;9.190;2024-01-07T12:08:42;9.57;;;6.70;;
3769;SDS011;1900;48.890;9.190;2024-01-07T12:11:12;10.17;;;6.77;;
3769;SDS011;1900;48.890;9.190;2024-01-07T12:13:39;10.40;;;6.90;;
3769;SDS011;1900;48.890;9.190;2024-01-07T12:16:06;11.03;;;7.50;;
3769;SDS011;1900;48.890;9.190;2024-01-07T12:18:33;9.40;;;6.53;;
3769;SDS011;1900;48.890;9.190;2024-01-07T12:21:02;7.40;;;5.53;;
3769;SDS011;1900;48.890;9.190;2024-01-07T12:23:28;9.13;;;5.93;;
3769;SDS011;1900;48.890;9.190;2024-01-07T12:26:06;13.77;;;7.23;;
3769;SDS011;1900;48.890;9.190;2024-01-07T12:28:33;9.67;;;6.60;;
3769;SDS011;1900;48.890;9.190;2024-01-07T12:30:59;9.37;;;6.90;;
3769;SDS011;1900;48.890;9.190;2024-01-07T12:33:26;10.17;;;6.90;;
3769;SDS011;1900;48.890;9.190;2024-01-07T12:35:54;10.27;;;6.67;;
3769;SDS011;1900;48.890;9.190;2024-01-07T12:38:23;9.43;;;6.30;;
3769;SDS011;1900;48.890;9.190;2024-01-07T12:40:50;10.63;;;6.50;;
3769;SDS011;1900;48.890;9.190;2024-01-07T12:43:17;11.30;;;7.30;;
3769;SDS011;1900;48.890;9.190;2024-01-07T12:45:42;13.67;;;7.87;;
3769;SDS011;1900;48.890;9.190;2024-01-07T12:48:09;9.80;;;7.00;;
3769;SDS011;1900;48.890;9.190;2024-01-07T12:50:35;8.77;;;7.03;;
3769;SDS011;1900;48.890;9.190;2024-01-07T12:53:01;9.83;;;7.10;;
3769;SDS011;1900;48.890;9.190;2024-01-07T12:55:27;11.80;;;7.70;;
3769;SDS011;1900;48.890;9.190;2024-01-07T12:57:52;12.70;;;7.70;;
3769;SDS011;1900;48.890;9.190;2024-01-07T13:00:19;12.80;;;7.97;;
3769;SDS011;1900;48.890;9.190;2024-01-07T13:02:46;12.87;;;8.13;;
3769;SDS011;1900;48.890;9.190;2024-01-07T13:05:12;11.87;;;8.10;;
3769;SDS011;1900;48.890;9.190;2024-01-07T13:07:39;11.43;;;8.37;;
3769;SDS011;1900;48.890;9.190;2024-01-07T13:10:06;12.00;;;7.10;;
3769;SDS011;1900;48.890;9.190;2024-01-07T13:12:32;11.00;;;7.20;;
3769;SDS011;1900;48.890;9.190;2024-01-07T13:14:58;11.37;;;8.10;;
3769;SDS011;1900;48.890;9.190;2024-01-07T13:17:23;10.63;;;6.87;;
3769;SDS011;1900;48.890;9.190;2024-01-07T13:19:49;11.00;;;7.20;;
3769;SDS011;1900;48.890;9.190;2024-01-07T13:22:15;13.70;;;8.77;;
3769;SDS011;1900;48.890;9.190;2024-01-07T13:24:41;10.43;;;7.30;;
3769;SDS011;1900;48.890;9.190;2024-01-07T13:27:07;10.13;;;7.43;;
3769;SDS011;1900;48.890;9.190;2024-01-07T13:29:33;10.43;;;7.30;;
3769;SDS011;1900;48.890;9.190;2024-01-07T13:32:00;15.10;;;7.37;;
3769;SDS011;1900;48.890;9.190;2024-01-07T13:34:26;10.90;;;7.13;;
3769;SDS011;1900;48.890;9.190;2024-01-07T13:36:52;9.53;;;7.50;;
3769;SDS011;1900;48.890;9.190;2024-01-07T13:39:17;12.37;;;7.93;;
3769;SDS011;1900;48.890;9.190;2024-01-07T13:41:44;11.73;;;7.80;;
3769;SDS011;1900;48.890;9.190;2024-01-07T13:44:10;10.40;;;7.73;;
3769;SDS011;1900;48.890;9.190;2024-01-07T13:46:43;13.77;;;8.57;;
3769;SDS011;1900;48.890;9.190;2024-01-07T13:49:13;13.07;;;8.20;;
3769;SDS011;1900;48.890;9.190;2024-01-07T13:51:39;12.07;;;8.03;;
3769;SDS011;1900;48.890;9.190;2024-01-07T13:54:06;13.10;;;7.97;;
3769;SDS011;1900;48.890;9.190;2024-01-07T13:56:32;12.20;;;8.43;;
3769;SDS011;1900;48.890;9.190;2024-01-07T13:59:01;11.13;;;8.03;;
3769;SDS011;1900;48.890;9.190;2024-01-07T14:01:28;13.43;;;8.47;;
3769;SDS011;1900;48.890;9.190;2024-01-07T14:03:55;9.97;;;8.53;;
3769;SDS011;1900;48.890;9.190;2024-01-07T14:06:21;11.10;;;8.30;;
3769;SDS011;1900;48.890;9.190;2024-01-07T14:08:46;15.37;;;9.33;;
3769;SDS011;1900;48.890;9.190;2024-01-07T14:11:12;11.77;;;8.00;;
3769;SDS011;1900;48.890;9.190;2024-01-07T14:13:39;14.23;;;7.87;;
3769;SDS011;1900;48.890;9.190;2024-01-07T14:16:04;12.63;;;8.60;;
3769;SDS011;1900;48.890;9.190;2024-01-07T14:18:31;10.80;;;8.33;;
3769;SDS011;1900;48.890;9.190;2024-01-07T14:20:58;12.70;;;8.70;;
3769;SDS011;1900;48.890;9.190;2024-01-07T14:23:24;15.27;;;9.30;;
3769;SDS011;1900;48.890;9.190;2024-01-07T14:25:49;11.00;;;8.30;;
3769;SDS011;1900;48.890;9.190;2024-01-07T14:28:18;14.10;;;9.20;;
3769;SDS011;1900;48.890;9.190;2024-01-07T14:30:44;14.53;;;9.80;;
3769;SDS011;1900;48.890;9.190;2024-01-07T14:33:09;15.17;;;8.47;;
3769;SDS011;1900;48.890;9.190;2024-01-07T14:35:35;11.80;;;7.93;;
3769;SDS011;1900;48.890;9.190;2024-01-07T14:38:01;12.00;;;8.00;;
3769;SDS011;1900;48.890;9.190;2024-01-07T14:40:29;11.60;;;8.57;;
3769;SDS011;1900;48.890;9.190;2024-01-07T14:42:55;14.53;;;8.73;;
3769;SDS011;1900;48.890;9.190;2024-01-07T14:45:23;14.87;;;9.33;;
3769;SDS011;1900;48.890;9.190;2024-01-07T14:47:51;17.50;;;8.93;;
3769;SDS011;1900;48.890;9.190;2024-01-07T14:50:17;16.23;;;8.70;;
3769;SDS011;1900;48.890;9.190;2024-01-07T14:52:44;13.37;;;8.60;;
3769;SDS011;1900;48.890;9.190;2024-01-07T14:55:10;12.83;;;8.83;;
3769;SDS011;1900;48.890;9.190;2024-01-07T14:57:36;9.67;;;6.90;;
3769;SDS011;1900;48.890;9.190;2024-01-07T15:00:02;10.33;;;7.60;;
3769;SDS011;1900;48.890;9.190;2024-01-07T15:02:30;10.70;;;7.83;;
3769;SDS011;1900;48.890;9.190;2024-01-07T15:04:56;10.97;;;7.20;;
3769;SDS011;1900;48.890;9.190;2024-01-07T15:07:25;10.27;;;6.67;;